Time;durP1;ratioP1;P1;durP2;ratioP2;P2;SDS_P1;SDS_P2;PMS_P1;PMS_P2;Temp;Humidity;BMP_temperature;BMP_pressure;BME280_temperature;BME280_humidity;BME280_pressure;Samples;Min_cycle;Max_cycle;Signal;HPM_P1;HPM_P2
2020/12/01 00:02:23;;;;;;;41.60;22.73;;;1.70;84.70;;;;;;4986092;28;86242;-73
2020/12/01 00:04:49;;;;;;;43.63;25.27;;;1.70;84.70;;;;;;5003344;28;84156;-73
2020/12/01 00:07:15;;;;;;;38.50;23.80;;;1.70;84.70;;;;;;4985844;28;87127;-73
2020/12/01 00:09:42;;;;;;;34.00;23.47;;;1.70;84.40;;;;;;4991377;28;86979;-74
2020/12/01 00:12:08;;;;;;;35.07;23.13;;;1.80;84.00;;;;;;5013914;28;83590;-73
2020/12/01 00:14:34;;;;;;;39.43;23.13;;;1.70;84.20;;;;;;4989362;28;87200;-73
2020/12/01 00:17:00;;;;;;;34.43;22.17;;;1.80;84.40;;;;;;5001870;28;83597;-73
2020/12/01 00:19:26;;;;;;;36.80;21.27;;;1.80;84.40;;;;;;4985620;28;87412;-73
2020/12/01 00:21:52;;;;;;;33.33;21.20;;;1.80;84.30;;;;;;4984418;28;86702;-74
2020/12/01 00:24:19;;;;;;;35.23;21.20;;;1.80;84.20;;;;;;5017801;28;87765;-73
2020/12/01 00:26:44;;;;;;;29.73;19.27;;;1.80;84.30;;;;;;5001089;28;87298;-73
2020/12/01 00:29:10;;;;;;;32.67;20.13;;;1.90;83.80;;;;;;4985514;28;87190;-73
2020/12/01 00:31:41;;;;;;;31.07;19.60;;;1.90;83.90;;;;;;5002326;28;83036;-73
2020/12/01 00:34:11;;;;;;;29.50;18.77;;;1.90;83.70;;;;;;5002205;28;87919;-73
2020/12/01 00:36:38;;;;;;;30.20;20.00;;;2.00;83.80;;;;;;5002088;28;84764;-75
2020/12/01 00:39:05;;;;;;;28.00;18.97;;;2.00;83.50;;;;;;5002913;28;84379;-73
2020/12/01 00:41:31;;;;;;;29.37;18.83;;;2.00;83.50;;;;;;5003595;28;83405;-73
2020/12/01 00:43:58;;;;;;;28.67;19.73;;;2.00;83.40;;;;;;4984417;28;88063;-74
2020/12/01 00:46:24;;;;;;;30.73;20.77;;;2.00;83.50;;;;;;5003474;28;84109;-73
2020/12/01 00:48:50;;;;;;;27.00;18.97;;;2.10;83.40;;;;;;5000973;28;86087;-74
2020/12/01 00:51:18;;;;;;;27.33;18.43;;;2.10;83.10;;;;;;4985330;28;86088;-73
2020/12/01 00:53:44;;;;;;;26.37;17.67;;;2.10;83.10;;;;;;5016336;28;88510;-73
2020/12/01 00:56:11;;;;;;;31.50;18.23;;;2.20;83.00;;;;;;4985052;28;87447;-73
2020/12/01 00:58:38;;;;;;;26.37;18.00;;;2.20;83.50;;;;;;5002094;28;84267;-73
2020/12/01 01:01:27;;;;;;;26.53;17.27;;;2.20;82.30;;;;;;4987446;28;86142;-73
2020/12/01 01:03:53;;;;;;;24.33;17.27;;;2.20;82.40;;;;;;4984213;28;87468;-73
2020/12/01 01:06:19;;;;;;;24.97;17.30;;;2.20;82.70;;;;;;5018181;28;87332;-73
2020/12/01 01:08:45;;;;;;;24.03;17.00;;;2.30;82.10;;;;;;5017241;28;88277;-74
2020/12/01 01:11:11;;;;;;;24.23;16.80;;;2.30;82.00;;;;;;4984713;28;85327;-73
2020/12/01 01:13:38;;;;;;;21.67;16.10;;;2.30;82.00;;;;;;5002441;28;84464;-73
2020/12/01 01:16:05;;;;;;;23.73;17.50;;;2.40;81.20;;;;;;5001167;28;83629;-73
2020/12/01 01:18:32;;;;;;;21.57;16.10;;;2.40;81.00;;;;;;4984766;28;86978;-73
2020/12/01 01:20:58;;;;;;;22.40;16.70;;;2.40;81.10;;;;;;5017088;28;85382;-73
2020/12/01 01:23:24;;;;;;;21.17;15.83;;;2.40;81.20;;;;;;4984105;28;87119;-73
2020/12/01 01:25:50;;;;;;;23.77;15.97;;;2.30;81.20;;;;;;4999963;28;84336;-74
2020/12/01 01:28:16;;;;;;;25.77;17.53;;;2.30;81.60;;;;;;5000725;28;87109;-73
2020/12/01 01:30:42;;;;;;;23.37;16.67;;;2.40;81.00;;;;;;5000804;28;86790;-75
2020/12/01 01:33:11;;;;;;;22.90;16.97;;;2.50;80.90;;;;;;5017370;28;88601;-73
2020/12/01 01:35:38;;;;;;;23.13;16.27;;;2.50;80.80;;;;;;4984483;28;84672;-73
2020/12/01 01:38:06;;;;;;;22.00;16.07;;;2.50;81.00;;;;;;4983745;28;86998;-73
2020/12/01 01:40:32;;;;;;;22.63;15.33;;;2.40;81.00;;;;;;4984454;28;86233;-73
2020/12/01 01:42:59;;;;;;;19.80;15.20;;;2.40;80.90;;;;;;5000451;28;84022;-73
2020/12/01 01:45:35;;;;;;;21.17;14.53;;;2.50;81.10;;;;;;4984326;28;86824;-73
2020/12/01 01:48:03;;;;;;;21.20;14.87;;;2.40;81.00;;;;;;5001615;28;83191;-73
2020/12/01 01:50:29;;;;;;;19.53;14.57;;;2.50;80.50;;;;;;5017586;28;86489;-73
2020/12/01 01:52:55;;;;;;;22.57;15.17;;;2.50;79.80;;;;;;4983433;28;88564;-73
2020/12/01 01:55:26;;;;;;;21.83;14.47;;;2.60;78.70;;;;;;5000461;28;84545;-73
2020/12/01 01:58:00;;;;;;;22.47;15.20;;;2.60;79.00;;;;;;4983432;28;89026;-73
2020/12/01 02:03:35;;;;;;;18.23;12.73;;;2.60;78.70;;;;;;5001582;28;83289;-73
2020/12/01 02:06:03;;;;;;;20.13;13.80;;;2.70;78.60;;;;;;5019965;28;87458;-73
2020/12/01 02:08:29;;;;;;;17.17;13.43;;;2.70;78.10;;;;;;5004395;28;87556;-73
2020/12/01 02:10:56;;;;;;;18.97;14.03;;;2.80;77.90;;;;;;5004934;28;83480;-73
2020/12/01 02:13:35;;;;;;;17.17;12.80;;;2.80;77.60;;;;;;5004448;28;84994;-73
2020/12/01 02:16:01;;;;;;;16.07;13.10;;;2.80;77.90;;;;;;5003527;28;84251;-73
2020/12/01 02:18:30;;;;;;;17.53;12.53;;;2.80;77.50;;;;;;5004145;28;87458;-73
2020/12/01 02:20:57;;;;;;;20.87;13.73;;;2.70;77.40;;;;;;5003401;28;83925;-73
2020/12/01 02:23:23;;;;;;;17.53;12.73;;;2.70;77.40;;;;;;4987340;28;86956;-73
2020/12/01 02:25:49;;;;;;;14.67;10.63;;;2.70;77.50;;;;;;4986540;28;87146;-74
2020/12/01 02:28:15;;;;;;;15.87;12.60;;;2.70;77.30;;;;;;5005431;28;83935;-73
2020/12/01 02:30:41;;;;;;;15.73;12.10;;;2.70;77.10;;;;;;5003961;28;85991;-73
2020/12/01 02:33:07;;;;;;;18.47;11.83;;;2.70;76.60;;;;;;4986580;28;87701;-73
2020/12/01 02:35:33;;;;;;;17.97;12.83;;;2.70;77.00;;;;;;4987285;28;86359;-73
2020/12/01 02:37:59;;;;;;;16.43;11.50;;;2.60;77.10;;;;;;4986391;28;85396;-74
2020/12/01 02:40:24;;;;;;;16.50;11.23;;;2.70;76.70;;;;;;5020576;28;87033;-73
2020/12/01 02:42:53;;;;;;;16.83;12.43;;;2.80;76.10;;;;;;5002762;28;88066;-73
2020/12/01 02:45:20;;;;;;;16.07;11.60;;;2.70;76.10;;;;;;4987252;28;87257;-73
2020/12/01 02:47:46;;;;;;;17.17;12.17;;;2.70;75.90;;;;;;5003392;28;87386;-75
2020/12/01 02:50:12;;;;;;;15.23;11.60;;;2.80;76.30;;;;;;5019881;28;85237;-73
2020/12/01 02:52:39;;;;;;;14.70;11.40;;;2.80;75.70;;;;;;4986253;28;85349;-74
2020/12/01 02:55:05;;;;;;;17.87;12.87;;;2.80;75.20;;;;;;5004057;28;83113;-73
2020/12/01 02:57:31;;;;;;;17.67;12.57;;;2.80;75.40;;;;;;5003811;28;84200;-73
2020/12/01 02:59:57;;;;;;;14.87;11.37;;;2.80;75.40;;;;;;5004062;28;84037;-74
2020/12/01 03:02:23;;;;;;;17.57;11.37;;;2.80;75.10;;;;;;5003654;28;84686;-73
2020/12/01 03:04:49;;;;;;;16.83;11.70;;;2.70;75.80;;;;;;5004227;28;84133;-75
2020/12/01 03:07:15;;;;;;;15.30;10.53;;;2.80;75.30;;;;;;5020159;28;87108;-73
2020/12/01 03:09:41;;;;;;;15.13;11.33;;;2.80;74.90;;;;;;4986814;28;86694;-74
2020/12/01 03:12:07;;;;;;;16.17;11.57;;;2.80;74.80;;;;;;5002755;28;83300;-73
2020/12/01 03:14:33;;;;;;;15.87;11.60;;;2.80;75.00;;;;;;5004738;28;84154;-73
2020/12/01 03:16:59;;;;;;;15.40;11.43;;;2.80;74.60;;;;;;5001976;28;84046;-73
2020/12/01 03:19:24;;;;;;;19.17;11.67;;;2.90;74.10;;;;;;4986686;28;86519;-73
2020/12/01 03:21:50;;;;;;;17.73;12.27;;;2.80;74.50;;;;;;5003948;28;83273;-75
2020/12/01 03:24:16;;;;;;;16.63;11.97;;;2.80;74.20;;;;;;4986250;28;86668;-73
2020/12/01 03:26:43;;;;;;;16.80;11.80;;;2.80;73.60;;;;;;4986424;28;87243;-73
2020/12/01 03:29:09;;;;;;;14.97;11.10;;;2.80;74.40;;;;;;5019105;28;86467;-73
2020/12/01 03:31:35;;;;;;;16.47;11.70;;;2.80;74.00;;;;;;4987061;28;86756;-73
2020/12/01 03:34:01;;;;;;;17.27;11.73;;;2.80;74.00;;;;;;5006356;28;87412;-74
2020/12/01 03:36:27;;;;;;;17.73;12.27;;;2.80;73.80;;;;;;5011534;28;83934;-74
2020/12/01 03:38:52;;;;;;;17.90;12.17;;;2.90;73.30;;;;;;5006841;28;83417;-74
2020/12/01 03:41:19;;;;;;;15.63;11.37;;;2.90;73.40;;;;;;4986174;28;87622;-73
2020/12/01 03:43:46;;;;;;;18.07;11.90;;;2.90;73.20;;;;;;5018889;28;87542;-73
2020/12/01 03:46:12;;;;;;;17.57;12.00;;;2.80;73.20;;;;;;4985456;28;87362;-73
2020/12/01 03:48:38;;;;;;;16.80;11.33;;;2.80;72.40;;;;;;4986071;28;86965;-73
2020/12/01 03:51:04;;;;;;;16.67;12.03;;;2.80;72.50;;;;;;5018588;28;86307;-73
2020/12/01 03:53:30;;;;;;;19.23;12.70;;;2.80;73.30;;;;;;4969481;28;87269;-73
2020/12/01 03:55:56;;;;;;;22.20;12.40;;;2.80;73.00;;;;;;5003516;28;84280;-74
2020/12/01 03:58:22;;;;;;;16.23;12.00;;;2.80;72.70;;;;;;5004275;28;84027;-73
2020/12/01 04:00:48;;;;;;;20.90;12.70;;;2.80;72.70;;;;;;5004021;28;84708;-73
2020/12/01 04:03:14;;;;;;;19.60;13.13;;;2.80;72.70;;;;;;5002285;28;83562;-73
2020/12/01 04:05:39;;;;;;;19.60;13.33;;;2.80;72.80;;;;;;4985823;28;87309;-73
2020/12/01 04:08:08;;;;;;;17.47;12.50;;;2.70;72.70;;;;;;5003436;28;83402;-73
2020/12/01 04:10:34;;;;;;;21.57;13.13;;;2.80;72.50;;;;;;4985693;28;87821;-73
2020/12/01 04:13:00;;;;;;;22.40;13.70;;;2.80;72.80;;;;;;5001777;28;83937;-73
2020/12/01 04:15:26;;;;;;;17.90;12.93;;;2.80;73.00;;;;;;4985600;28;87760;-73
2020/12/01 04:17:53;;;;;;;21.23;14.30;;;2.80;72.90;;;;;;5003373;28;83661;-74
2020/12/01 04:20:19;;;;;;;18.03;13.37;;;2.80;72.00;;;;;;5002170;28;85353;-73
2020/12/01 04:22:46;;;;;;;23.37;13.10;;;2.80;72.40;;;;;;5018865;28;87161;-73
2020/12/01 04:25:13;;;;;;;20.40;13.53;;;2.80;72.00;;;;;;5001299;28;84351;-73
2020/12/01 04:27:39;;;;;;;18.70;13.47;;;2.70;71.90;;;;;;4984231;28;87282;-73
2020/12/01 04:30:07;;;;;;;20.17;12.87;;;2.70;71.50;;;;;;5001205;28;86317;-73
2020/12/01 04:32:33;;;;;;;20.23;14.23;;;2.70;71.80;;;;;;5018120;28;88005;-74
2020/12/01 04:34:59;;;;;;;17.03;12.10;;;2.70;72.10;;;;;;5017840;28;85777;-74
2020/12/01 04:37:25;;;;;;;18.20;12.60;;;2.70;71.20;;;;;;5003248;28;83455;-73
2020/12/01 04:39:51;;;;;;;19.70;12.10;;;2.70;71.20;;;;;;5002143;28;83218;-73
2020/12/01 04:42:19;;;;;;;19.67;12.13;;;2.60;71.00;;;;;;4984622;28;87507;-73
2020/12/01 04:45:02;;;;;;;18.30;12.47;;;2.60;71.20;;;;;;5001701;28;86805;-73
2020/12/01 04:47:48;;;;;;;19.38;12.95;;;2.60;71.40;;;;;;4985180;28;86788;-73
2020/12/01 04:50:21;;;;;;;20.30;11.97;;;2.60;69.90;;;;;;5017561;28;88306;-73
2020/12/01 04:53:02;;;;;;;19.20;11.53;;;2.60;70.20;;;;;;5001806;28;84379;-73
2020/12/01 04:55:50;;;;;;;17.33;11.43;;;2.60;70.30;;;;;;5002195;28;83540;-73
2020/12/01 04:58:35;;;;;;;19.10;11.57;;;2.50;70.10;;;;;;5000796;28;83509;-73
2020/12/01 05:01:15;;;;;;;18.17;12.70;;;2.40;69.90;;;;;;5017585;28;86867;-73
2020/12/01 05:04:09;;;;;;;17.97;11.23;;;2.40;70.50;;;;;;5001921;28;83814;-74
2020/12/01 05:07:30;;;;;;;20.17;11.90;;;2.30;70.60;;;;;;5003219;28;84487;-73
2020/12/01 05:09:51;;;;;;;21.10;12.60;;;2.30;70.70;;;;;;4999650;28;83766;-73
2020/12/01 05:12:35;;;;;;;16.25;10.88;;;2.30;70.50;;;;;;5000725;28;87589;-73
2020/12/01 05:15:16;;;;;;;19.53;12.67;;;2.30;70.60;;;;;;4984156;28;87375;-74
2020/12/01 05:18:03;;;;;;;20.33;11.53;;;2.30;70.60;;;;;;5001382;28;87395;-73
2020/12/01 05:20:29;;;;;;;20.47;11.90;;;2.30;70.70;;;;;;5001409;28;86755;-73
2020/12/01 05:23:00;;;;;;;20.23;11.17;;;2.30;70.40;;;;;;4983728;28;87690;-74
2020/12/01 05:25:31;;;;;;;18.27;11.48;;;2.30;70.20;;;;;;4983951;28;87513;-73
2020/12/01 05:28:09;;;;;;;19.57;12.23;;;2.30;70.00;;;;;;5000026;28;87452;-75
2020/12/01 05:30:36;;;;;;;18.13;11.83;;;2.20;70.10;;;;;;4983893;28;86967;-73
2020/12/01 05:33:18;;;;;;;17.90;11.37;;;2.20;69.70;;;;;;4983295;28;88276;-74
2020/12/01 05:36:01;;;;;;;20.27;11.47;;;2.20;70.00;;;;;;4984629;28;87615;-73
2020/12/01 05:38:27;;;;;;;20.85;12.65;;;2.20;70.00;;;;;;5001318;28;84211;-73
2020/12/01 05:41:00;;;;;;;21.30;12.43;;;2.20;69.50;;;;;;4984354;28;83631;-73
2020/12/01 05:43:38;;;;;;;18.70;12.27;;;2.10;69.50;;;;;;5001723;28;83214;-73
2020/12/01 05:46:17;;;;;;;20.53;12.67;;;2.10;69.50;;;;;;5000597;28;84097;-74
2020/12/01 05:49:02;;;;;;;19.73;11.87;;;2.10;69.80;;;;;;4984488;28;86704;-73
2020/12/01 05:51:45;;;;;;;21.67;12.87;;;2.10;70.00;;;;;;5017755;28;85489;-73
2020/12/01 05:54:20;;;;;;;20.10;12.50;;;2.00;69.90;;;;;;5000975;28;84389;-73
2020/12/01 05:56:52;;;;;;;20.90;12.77;;;2.10;70.00;;;;;;4984460;28;86479;-73
2020/12/01 05:59:21;;;;;;;22.77;13.57;;;2.10;70.20;;;;;;5000442;28;84006;-73
2020/12/01 06:01:50;;;;;;;21.97;12.80;;;2.10;70.00;;;;;;5013769;28;83334;-73
2020/12/01 06:04:20;;;;;;;21.97;13.00;;;2.00;70.20;;;;;;5019870;28;84566;-73
2020/12/01 06:06:52;;;;;;;23.70;12.93;;;2.00;70.10;;;;;;5019904;28;84243;-73
2020/12/01 06:09:47;;;;;;;21.93;13.47;;;2.00;70.50;;;;;;5003612;28;85722;-73
2020/12/01 06:12:46;;;;;;;21.97;13.50;;;1.90;70.70;;;;;;5019712;28;83744;-74
2020/12/01 06:15:18;;;;;;;22.73;13.43;;;1.90;71.10;;;;;;4983189;28;88050;-74
2020/12/01 06:18:30;;;;;;;26.80;15.43;;;2.00;71.00;;;;;;5012706;28;87298;-73
2020/12/01 06:21:01;;;;;;;;;;;2.00;71.00;;;;;;5010006;28;83866;-73
2020/12/01 06:23:55;;;;;;;22.27;13.10;;;2.00;71.40;;;;;;5014642;28;86731;-73
2020/12/01 06:26:52;;;;;;;20.87;12.50;;;1.90;71.60;;;;;;5002447;28;88306;-74
2020/12/01 06:29:24;;;;;;;25.40;14.53;;;2.00;71.40;;;;;;5020410;28;84593;-74
2020/12/01 06:32:16;;;;;;;23.30;13.70;;;2.10;70.90;;;;;;5020138;28;84099;-73
2020/12/01 06:34:43;;;;;;;26.37;14.73;;;2.00;70.80;;;;;;5020948;28;85242;-73
2020/12/01 06:37:48;;;;;;;25.10;14.37;;;2.00;70.60;;;;;;5019152;28;84498;-74
2020/12/01 06:40:43;;;;;;;26.83;14.53;;;2.00;71.30;;;;;;5007550;28;84771;-74
2020/12/01 06:43:15;;;;;;;22.43;14.27;;;2.10;71.10;;;;;;5002385;28;86025;-74
2020/12/01 06:45:49;;;;;;;23.83;14.73;;;2.10;70.90;;;;;;5010604;28;86769;-73
2020/12/01 06:48:24;;;;;;;23.97;14.83;;;2.10;70.80;;;;;;5019212;28;84813;-73
2020/12/01 06:50:57;;;;;;;26.00;15.70;;;2.20;70.60;;;;;;5003961;28;87457;-74
2020/12/01 06:53:32;;;;;;;22.17;14.23;;;2.30;70.10;;;;;;5016225;28;89383;-73
2020/12/01 06:56:18;;;;;;;27.07;15.13;;;2.30;70.20;;;;;;5027432;28;85342;-75
2020/12/01 06:58:50;;;;;;;23.93;15.03;;;2.50;69.70;;;;;;5012352;28;84618;-73
2020/12/01 07:01:22;;;;;;;;;;;2.40;69.80;;;;;;5022927;28;86380;-74
2020/12/01 07:04:05;;;;;;;31.70;15.52;;;2.40;70.00;;;;;;5026632;28;83289;-73
2020/12/01 07:06:31;;;;;;;23.03;14.33;;;2.50;69.80;;;;;;5024611;28;83407;-72
2020/12/01 07:09:24;;;;;;;24.67;14.83;;;2.60;69.90;;;;;;5025235;28;84087;-77
2020/12/01 07:12:12;;;;;;;23.97;14.53;;;2.60;69.60;;;;;;5019215;28;87499;-76
2020/12/01 07:15:04;;;;;;;30.27;16.23;;;2.70;69.10;;;;;;5037133;28;84129;-75
2020/12/01 07:17:58;;;;;;;29.13;17.02;;;2.80;69.30;;;;;;5020200;28;87305;-75
2020/12/01 07:20:41;;;;;;;26.83;15.97;;;2.80;69.00;;;;;;5002297;28;88344;-76
2020/12/01 07:23:30;;;;;;;24.27;15.70;;;2.80;69.00;;;;;;5020068;28;87616;-76
2020/12/01 07:26:15;;;;;;;27.10;17.00;;;2.90;69.30;;;;;;5003996;28;86593;-76
2020/12/01 07:29:02;;;;;;;26.80;16.70;;;3.10;68.60;;;;;;5004211;28;85544;-76
2020/12/01 07:31:32;;;;;;;23.97;15.40;;;3.20;67.90;;;;;;5004035;28;88398;-74
2020/12/01 07:34:19;;;;;;;26.40;16.30;;;3.30;68.00;;;;;;5020367;28;87182;-74
2020/12/01 07:36:50;;;;;;;25.80;15.77;;;3.50;67.50;;;;;;5021464;28;83592;-74
2020/12/01 07:39:24;;;;;;;29.42;17.73;;;3.90;65.80;;;;;;5019714;28;83975;-76
2020/12/01 07:42:04;;;;;;;25.43;17.80;;;4.10;64.80;;;;;;5020834;28;88174;-75
2020/12/01 07:44:43;;;;;;;28.07;17.80;;;4.20;64.40;;;;;;5022543;28;84118;-80
2020/12/01 07:47:16;;;;;;;29.27;18.67;;;4.30;63.80;;;;;;5025658;28;83157;-76
2020/12/01 07:49:42;;;;;;;29.43;17.53;;;4.30;63.90;;;;;;5004338;28;85449;-78
2020/12/01 07:52:08;;;;;;;29.70;18.60;;;4.30;63.80;;;;;;5003186;28;88181;-77
2020/12/01 07:54:38;;;;;;;30.10;19.33;;;4.20;64.30;;;;;;5021144;28;87460;-77
2020/12/01 07:57:19;;;;;;;35.13;16.50;;;4.10;64.50;;;;;;5023724;28;84033;-75
2020/12/01 07:59:48;;;;;;;25.50;18.13;;;4.10;65.00;;;;;;5023670;28;84151;-79
2020/12/01 08:02:16;;;;;;;27.00;17.47;;;3.90;65.80;;;;;;5003889;28;88207;-78
2020/12/01 08:04:42;;;;;;;29.10;17.13;;;3.80;66.60;;;;;;5001503;28;87277;-78
2020/12/01 08:07:16;;;;;;;36.67;19.63;;;3.80;67.10;;;;;;5020757;28;84943;-78
2020/12/01 08:09:44;;;;;;;31.97;19.80;;;3.70;67.80;;;;;;5014703;28;84960;-78
2020/12/01 08:12:15;;;;;;;33.90;19.73;;;3.70;68.50;;;;;;4994028;28;87566;-77
2020/12/01 08:14:51;;;;;;;32.47;19.70;;;3.50;69.10;;;;;;5011009;28;84357;-78
2020/12/01 08:17:25;;;;;;;33.17;19.40;;;3.50;69.90;;;;;;4997784;28;85961;-77
2020/12/01 08:19:54;;;;;;;36.37;22.00;;;3.50;70.20;;;;;;4994526;28;86729;-78
2020/12/01 08:22:29;;;;;;;34.00;20.80;;;3.50;70.20;;;;;;4991538;28;86434;-77
2020/12/01 08:25:00;;;;;;;30.97;18.93;;;3.40;70.70;;;;;;5018133;28;83191;-78
2020/12/01 08:27:37;;;;;;;34.87;20.97;;;3.40;71.00;;;;;;5003530;28;87618;-78
2020/12/01 08:30:13;;;;;;;32.13;20.40;;;3.50;71.00;;;;;;5021619;28;86522;-78
2020/12/01 08:32:44;;;;;;;33.47;20.37;;;3.50;70.80;;;;;;5028504;28;87735;-78
2020/12/01 08:35:37;;;;;;;32.43;19.60;;;3.50;70.60;;;;;;5020267;28;87246;-78
2020/12/01 08:38:46;;;;;;;32.73;19.13;;;3.70;69.90;;;;;;5020915;28;83670;-77
2020/12/01 08:41:49;;;;;;;36.20;20.70;;;3.60;69.60;;;;;;4991353;28;87142;-78
2020/12/01 08:44:37;;;;;;;31.40;19.53;;;3.50;70.80;;;;;;5004382;28;86867;-78
2020/12/01 08:47:04;;;;;;;33.07;19.70;;;3.50;71.10;;;;;;5007759;28;87438;-77
2020/12/01 08:49:44;;;;;;;38.23;22.40;;;3.60;70.40;;;;;;5029343;28;83656;-77
2020/12/01 08:52:35;;;;;;;41.00;25.33;;;3.70;70.40;;;;;;5005369;28;86462;-78
2020/12/01 08:55:28;;;;;;;43.17;26.50;;;3.70;72.90;;;;;;5005878;28;86989;-77
2020/12/01 08:58:35;;;;;;;37.67;21.63;;;3.70;70.40;;;;;;5021438;28;83778;-77
2020/12/01 09:01:03;;;;;;;37.17;22.43;;;3.60;71.00;;;;;;4981404;28;87338;-76
2020/12/01 09:03:31;;;;;;;37.97;21.93;;;3.70;70.50;;;;;;5009618;28;84864;-76
2020/12/01 09:05:57;;;;;;;35.50;20.80;;;3.90;70.30;;;;;;5022525;28;84082;-77
2020/12/01 09:13:55;;;;;;;35.57;22.23;;;4.50;68.40;;;;;;5007279;28;86947;-77
2020/12/01 09:19:45;;;;;;;38.10;23.17;;;5.20;66.10;;;;;;5017985;28;84517;-77
2020/12/01 09:22:09;;;;;;;37.80;22.27;;;5.30;64.60;;;;;;5017149;28;85839;-77
2020/12/01 09:24:35;;;;;;;40.80;24.53;;;5.20;64.70;;;;;;5018162;28;83876;-75
2020/12/01 09:27:14;;;;;;;41.60;25.37;;;5.20;65.00;;;;;;5014254;28;87320;-76
2020/12/01 09:29:49;;;;;;;39.77;23.17;;;5.20;64.90;;;;;;5013617;28;83962;-75
2020/12/01 09:32:21;;;;;;;37.67;22.90;;;5.30;64.90;;;;;;5013862;28;87172;-76
2020/12/01 09:34:48;;;;;;;40.73;22.27;;;5.30;64.50;;;;;;5019906;28;84161;-75
2020/12/01 09:37:15;;;;;;;39.07;24.47;;;5.40;64.00;;;;;;5002531;28;87825;-76
2020/12/01 09:39:41;;;;;;;41.13;23.73;;;5.40;63.50;;;;;;5020121;28;83272;-76
2020/12/01 09:42:24;;;;;;;37.93;22.67;;;5.40;63.50;;;;;;5019428;28;83819;-76
2020/12/01 09:45:02;;;;;;;38.37;23.67;;;5.40;63.70;;;;;;5019443;28;85721;-75
2020/12/01 09:47:48;;;;;;;45.37;26.17;;;5.30;63.30;;;;;;5015216;28;87029;-74
2020/12/01 09:50:21;;;;;;;37.53;23.27;;;5.30;63.90;;;;;;5033368;27;87809;-76
2020/12/01 10:08:47;;;;;;;38.30;23.07;;;4.70;67.10;;;;;;5012385;28;88661;-76
2020/12/01 10:36:55;;;;;;;38.37;23.67;;;4.60;66.50;;;;;;5016586;28;87378;-77
2020/12/01 10:39:22;;;;;;;40.90;25.57;;;4.70;66.70;;;;;;5020258;28;85828;-79
2020/12/01 10:41:48;;;;;;;38.03;23.60;;;5.10;66.00;;;;;;4997384;28;86016;-80
2020/12/01 10:44:14;;;;;;;34.67;22.60;;;5.20;64.20;;;;;;5012926;28;87980;-77
2020/12/01 10:46:40;;;;;;;34.27;22.67;;;5.20;64.50;;;;;;5013108;28;86006;-76
2020/12/01 10:49:06;;;;;;;40.57;25.70;;;5.20;63.70;;;;;;5010758;28;87703;-75
2020/12/01 10:51:34;;;;;;;36.07;24.27;;;5.30;63.90;;;;;;5003696;28;87016;-76
2020/12/01 10:54:00;;;;;;;43.10;23.93;;;5.30;63.40;;;;;;5003874;28;87576;-75
2020/12/01 10:56:26;;;;;;;35.77;23.83;;;5.30;63.40;;;;;;4993501;28;86631;-75
2020/12/01 10:58:52;;;;;;;36.37;23.97;;;5.30;63.60;;;;;;5015403;28;88528;-75
2020/12/01 11:01:18;;;;;;;39.27;24.43;;;5.20;64.00;;;;;;5014046;28;84222;-75
2020/12/01 11:03:44;;;;;;;40.90;24.80;;;5.20;63.70;;;;;;5017144;28;84328;-75
2020/12/01 11:06:10;;;;;;;41.47;23.27;;;5.20;63.20;;;;;;5011298;28;86983;-76
2020/12/01 11:08:36;;;;;;;41.43;24.17;;;5.20;63.40;;;;;;5015316;28;84049;-75
2020/12/01 11:11:02;;;;;;;35.00;22.47;;;5.40;63.20;;;;;;5015969;28;85817;-75
2020/12/01 11:13:28;;;;;;;38.40;23.57;;;5.40;62.60;;;;;;5016188;28;87112;-75
2020/12/01 11:15:55;;;;;;;31.43;21.40;;;5.50;62.20;;;;;;5015061;28;86047;-76
2020/12/01 11:18:21;;;;;;;39.80;25.80;;;5.40;62.60;;;;;;4997499;28;86340;-75
2020/12/01 11:20:47;;;;;;;35.27;24.27;;;5.30;62.70;;;;;;5014322;28;83701;-76
2020/12/01 11:23:13;;;;;;;32.87;21.40;;;5.30;62.70;;;;;;5015293;28;83652;-75
2020/12/01 11:25:39;;;;;;;44.43;26.43;;;5.40;62.50;;;;;;5012842;28;86580;-79
2020/12/01 11:28:05;;;;;;;64.13;32.43;;;5.50;62.60;;;;;;4996423;28;88148;-76
2020/12/01 11:30:31;;;;;;;78.10;36.37;;;5.50;62.10;;;;;;5015157;28;84555;-78
2020/12/01 11:32:57;;;;;;;66.33;30.43;;;5.50;62.20;;;;;;5012740;28;85550;-76
2020/12/01 11:35:23;;;;;;;50.67;26.90;;;5.40;62.00;;;;;;5014849;28;87310;-76
2020/12/01 11:37:50;;;;;;;89.67;38.30;;;5.30;62.40;;;;;;4995940;28;88690;-76
2020/12/01 11:40:16;;;;;;;66.40;34.07;;;5.30;62.60;;;;;;4998200;28;86557;-76
2020/12/01 11:42:42;;;;;;;38.67;23.87;;;5.10;63.50;;;;;;5014329;28;83246;-76
2020/12/01 11:45:10;;;;;;;42.80;25.43;;;5.10;63.60;;;;;;5008346;28;87165;-75
2020/12/01 11:47:36;;;;;;;44.70;24.90;;;5.00;63.90;;;;;;5006488;28;86823;-77
2020/12/01 11:50:05;;;;;;;61.03;32.57;;;5.10;63.60;;;;;;5005179;28;87034;-77
2020/12/01 11:52:31;;;;;;;37.50;22.33;;;5.20;64.60;;;;;;5004061;28;87313;-76
2020/12/01 11:54:57;;;;;;;37.50;24.00;;;5.30;65.70;;;;;;5003566;28;85994;-76
2020/12/01 11:57:22;;;;;;;36.30;23.73;;;5.30;63.40;;;;;;5003568;28;87958;-77
2020/12/01 11:59:48;;;;;;;38.50;23.77;;;5.30;62.90;;;;;;5003759;28;87132;-77
2020/12/01 12:02:14;;;;;;;49.00;26.90;;;5.30;63.60;;;;;;5003486;28;84026;-76
2020/12/01 12:04:40;;;;;;;45.57;27.30;;;5.30;63.70;;;;;;5003494;28;83891;-76
2020/12/01 12:07:06;;;;;;;39.17;24.33;;;5.30;63.10;;;;;;5003536;28;86497;-75
2020/12/01 12:09:32;;;;;;;34.27;22.40;;;5.30;64.00;;;;;;5004738;28;87435;-76
2020/12/01 12:11:58;;;;;;;35.80;22.47;;;5.20;63.20;;;;;;4987669;28;87147;-78
2020/12/01 12:14:24;;;;;;;32.10;21.33;;;5.20;63.20;;;;;;5003839;28;86349;-76
2020/12/01 12:16:50;;;;;;;33.60;21.97;;;5.20;63.30;;;;;;5006894;28;86376;-76
2020/12/01 12:19:16;;;;;;;44.97;25.93;;;5.10;64.20;;;;;;5036740;28;84474;-76
2020/12/01 12:21:42;;;;;;;47.77;24.63;;;5.20;63.20;;;;;;5003403;28;85937;-76
2020/12/01 12:24:08;;;;;;;32.85;20.00;;;5.20;64.20;;;;;;5006615;28;84195;-76
2020/12/01 12:26:34;;;;;;;31.20;19.60;;;5.10;62.90;;;;;;5013805;28;84421;-81
2020/12/01 12:29:00;;;;;;;31.33;20.83;;;5.00;63.20;;;;;;5013279;28;83102;-83
2020/12/01 12:31:26;;;;;;;45.27;25.13;;;5.00;63.20;;;;;;5003709;28;84969;-80
2020/12/01 12:33:52;;;;;;;38.40;20.93;;;4.90;63.50;;;;;;4996572;28;85223;-80
2020/12/01 12:36:18;;;;;;;34.87;20.50;;;4.90;63.90;;;;;;5014242;28;85012;-81
2020/12/01 12:38:44;;;;;;;34.23;21.90;;;4.80;64.10;;;;;;5002286;28;87895;-80
2020/12/01 12:41:10;;;;;;;34.17;21.50;;;4.70;65.30;;;;;;5016751;27;83300;-81
2020/12/01 12:43:35;;;;;;;45.53;28.67;;;4.70;65.30;;;;;;5000908;28;83028;-83
2020/12/01 12:46:02;;;;;;;40.43;24.20;;;4.80;65.80;;;;;;5018567;28;83213;-80
2020/12/01 12:48:28;;;;;;;32.40;21.57;;;4.90;65.40;;;;;;5028554;28;83143;-82
2020/12/01 12:50:54;;;;;;;44.37;25.53;;;4.90;65.70;;;;;;5008420;28;85146;-84
2020/12/01 12:53:21;;;;;;;41.30;22.80;;;4.90;65.60;;;;;;4998264;28;84571;-82
2020/12/01 12:55:47;;;;;;;41.40;22.93;;;5.00;65.40;;;;;;4997028;28;86272;-84
2020/12/01 12:58:13;;;;;;;37.43;23.37;;;5.00;65.60;;;;;;4989764;28;85498;-87
2020/12/01 13:00:39;;;;;;;35.57;22.80;;;5.00;65.30;;;;;;5024793;28;85457;-78
2020/12/01 13:03:05;;;;;;;36.00;21.87;;;5.00;65.40;;;;;;5019612;28;84199;-85
2020/12/01 13:05:32;;;;;;;37.83;23.13;;;5.00;65.80;;;;;;4996544;28;87040;-79
2020/12/01 13:07:58;;;;;;;39.77;25.13;;;5.10;66.00;;;;;;5024610;28;84183;-85
2020/12/01 13:10:25;;;;;;;39.40;24.80;;;5.10;65.70;;;;;;5022093;28;85584;-77
2020/12/01 13:12:51;;;;;;;40.67;24.87;;;5.10;66.10;;;;;;5028746;28;85618;-78
2020/12/01 13:15:18;;;;;;;44.33;26.23;;;5.10;66.20;;;;;;5215818;22;86307;-79
2020/12/01 13:17:44;;;;;;;45.43;26.20;;;5.00;66.70;;;;;;5015872;28;84313;-79
2020/12/01 13:20:20;;;;;;;42.97;28.13;;;5.00;66.80;;;;;;4989318;28;86875;-78
2020/12/01 13:22:46;;;;;;;38.03;23.53;;;5.00;67.00;;;;;;5017380;28;83697;-79
2020/12/01 13:25:12;;;;;;;37.87;24.60;;;5.00;64.00;;;;;;5010211;28;83516;-79
2020/12/01 13:27:38;;;;;;;31.37;21.87;;;4.90;63.70;;;;;;4994427;28;85109;-79
2020/12/01 13:30:07;;;;;;;34.83;21.03;;;4.80;60.70;;;;;;5009755;28;85774;-78
2020/12/01 13:32:33;;;;;;;29.90;19.77;;;4.70;60.10;;;;;;4992064;28;84860;-79
2020/12/01 13:34:59;;;;;;;38.10;23.70;;;4.60;61.00;;;;;;4992316;28;88019;-79
2020/12/01 13:37:26;;;;;;;32.80;21.93;;;4.60;61.10;;;;;;4992377;28;85826;-79
2020/12/01 13:39:51;;;;;;;39.00;22.67;;;4.60;61.70;;;;;;5009928;28;83406;-79
2020/12/01 13:42:17;;;;;;;34.07;23.03;;;4.60;61.90;;;;;;5009960;28;83476;-79
2020/12/01 13:44:43;;;;;;;34.93;22.87;;;4.60;61.70;;;;;;5003829;28;87650;-78
2020/12/01 13:47:09;;;;;;;35.40;22.67;;;4.50;61.80;;;;;;5008338;28;85652;-76
2020/12/01 13:49:35;;;;;;;33.00;22.33;;;4.50;61.60;;;;;;4992081;28;87108;-79
2020/12/01 13:52:01;;;;;;;36.77;23.70;;;4.40;62.20;;;;;;5011678;28;83437;-80